Time;durP1;ratioP1;P1;durP2;ratioP2;P2;SDS_P1;SDS_P2;PMS_P1;PMS_P2;Temp;Humidity;BMP_temperature;BMP_pressure;BME280_temperature;BME280_humidity;BME280_pressure;Samples;Min_cycle;Max_cycle;Signal;HPM_P1;HPM_P2
2024/04/17 00:00:46;;;;;;;0.40;0.40;;;10.30;96.30;11.70;99624.00;;;;5401701;26;20268;-65
2024/04/17 00:03:15;;;;;;;0.40;0.40;;;10.30;96.30;11.70;99615.00;;;;5403518;26;20343;-64
2024/04/17 00:05:41;;;;;;;0.47;0.47;;;10.30;96.30;11.60;99614.00;;;;5403721;26;20283;-64
2024/04/17 00:08:12;;;;;;;0.40;0.40;;;10.30;96.50;11.60;99612.00;;;;5404771;26;20737;-65
2024/04/17 00:10:41;;;;;;;0.40;0.40;;;10.20;96.30;11.60;99614.00;;;;5401049;26;20272;-65
2024/04/17 00:13:10;;;;;;;0.40;0.40;;;10.20;96.30;11.60;99620.00;;;;5401850;26;20591;-65
2024/04/17 00:15:36;;;;;;;0.40;0.40;;;10.20;96.30;11.60;99623.00;;;;5399724;26;20351;-65
2024/04/17 00:18:05;;;;;;;0.50;0.50;;;10.20;96.30;11.60;99622.00;;;;5398876;26;20364;-64
2024/04/17 00:20:31;;;;;;;0.40;0.40;;;10.20;96.30;11.50;99625.00;;;;5403517;26;20706;-64
2024/04/17 00:23:00;;;;;;;0.40;0.40;;;10.20;96.30;11.50;99627.00;;;;5403885;26;20333;-64
2024/04/17 00:25:26;;;;;;;0.40;0.40;;;10.20;96.30;11.50;99625.00;;;;5403451;26;20237;-64
2024/04/17 00:27:58;;;;;;;0.40;0.40;;;10.10;96.20;11.40;99629.00;;;;5401207;26;20245;-64
2024/04/17 00:30:24;;;;;;;0.40;0.40;;;10.10;96.20;11.40;99627.00;;;;5402501;26;20764;-64
2024/04/17 00:32:53;;;;;;;0.40;0.40;;;10.10;96.20;11.40;99633.00;;;;5402901;26;20727;-64
2024/04/17 00:35:19;;;;;;;0.45;0.45;;;10.00;96.10;11.30;99630.00;;;;5405395;26;20295;-64
2024/04/17 00:37:48;;;;;;;0.38;0.38;;;10.00;96.10;11.30;99621.00;;;;5400272;26;20607;-64
2024/04/17 00:40:15;;;;;;;0.50;0.50;;;10.00;96.10;11.30;99617.00;;;;5404791;26;20598;-65
2024/04/17 00:42:43;;;;;;;0.50;0.50;;;10.00;96.10;11.30;99628.00;;;;5404001;26;20237;-65
2024/04/17 00:45:12;;;;;;;0.40;0.40;;;9.90;96.60;11.20;99635.00;;;;5397599;26;20295;-64
2024/04/17 00:47:41;;;;;;;0.40;0.40;;;9.90;96.60;11.20;99637.00;;;;5401741;26;20241;-64
2024/04/17 00:50:10;;;;;;;0.40;0.40;;;9.90;96.60;11.10;99629.00;;;;5402862;26;20604;-64
2024/04/17 00:52:40;;;;;;;0.40;0.40;;;9.80;96.50;11.10;99632.00;;;;5403527;26;20275;-64
2024/04/17 00:55:07;;;;;;;0.40;0.40;;;9.80;96.50;11.10;99636.00;;;;5403323;26;20292;-64
2024/04/17 00:57:38;;;;;;;0.40;0.40;;;9.80;96.70;11.10;99637.00;;;;5402322;26;20245;-65
2024/04/17 01:00:05;;;;;;;0.40;0.40;;;9.70;96.50;11.00;99623.00;;;;5404894;26;20808;-64
2024/04/17 01:02:37;;;;;;;0.30;0.30;;;9.70;96.50;11.00;99633.00;;;;5403531;26;20833;-64
2024/04/17 01:05:03;;;;;;;0.40;0.40;;;9.70;96.50;10.90;99628.00;;;;5403089;26;20349;-65
2024/04/17 01:07:32;;;;;;;0.30;0.30;;;9.60;96.50;10.90;99632.00;;;;5401130;26;20233;-64
2024/04/17 01:09:58;;;;;;;0.40;0.40;;;9.60;96.50;10.90;99628.00;;;;5400237;26;20275;-64
2024/04/17 01:12:27;;;;;;;0.32;0.32;;;9.60;96.60;10.80;99622.00;;;;5396114;26;20284;-64
2024/04/17 01:15:30;;;;;;;0.50;0.50;;;9.50;96.50;10.80;99636.00;;;;5397487;26;20349;-64
2024/04/17 01:17:59;;;;;;;0.40;0.40;;;9.50;96.70;10.80;99620.00;;;;5400558;26;20313;-64
2024/04/17 01:20:27;;;;;;;0.45;0.45;;;9.50;96.50;10.70;99633.00;;;;5403720;26;20375;-64
2024/04/17 01:22:53;;;;;;;0.47;0.47;;;9.40;96.40;10.70;99630.00;;;;5403007;26;20242;-64
2024/04/17 01:25:25;;;;;;;0.50;0.50;;;9.40;96.40;10.60;99628.00;;;;5403844;26;20279;-65
2024/04/17 01:27:51;;;;;;;0.43;0.43;;;9.40;96.50;10.60;99620.00;;;;5405479;26;20773;-64
2024/04/17 01:30:20;;;;;;;0.40;0.40;;;9.30;96.50;10.60;99621.00;;;;5406385;26;20790;-64
2024/04/17 01:32:46;;;;;;;0.50;0.50;;;9.30;96.50;10.60;99621.00;;;;5407347;26;20297;-64
2024/04/17 01:35:15;;;;;;;0.32;0.32;;;9.30;96.50;10.60;99591.00;;;;5402924;26;20268;-64
2024/04/17 01:37:41;;;;;;;0.40;0.40;;;9.20;96.40;10.60;99619.00;;;;5405677;26;20700;-65
2024/04/17 01:40:11;;;;;;;0.43;0.43;;;9.20;96.40;10.50;99617.00;;;;5408696;26;20619;-64
2024/04/17 01:42:40;;;;;;;0.38;0.38;;;9.20;96.50;10.50;99624.00;;;;5403707;26;20323;-63
2024/04/17 01:45:09;;;;;;;0.40;0.40;;;9.20;96.50;10.50;99627.00;;;;5406223;26;20815;-64
2024/04/17 01:47:35;;;;;;;0.40;0.40;;;9.10;96.40;10.50;99620.00;;;;5405412;26;20249;-65
2024/04/17 01:50:06;;;;;;;0.40;0.40;;;9.10;96.50;10.40;99613.00;;;;5402769;26;20654;-64
2024/04/17 01:52:31;;;;;;;0.40;0.40;;;9.10;96.50;10.40;99618.00;;;;5404822;26;20730;-64
2024/04/17 01:55:00;;;;;;;0.40;0.40;;;9.10;96.50;10.40;99617.00;;;;5406173;26;20236;-64
2024/04/17 01:57:26;;;;;;;0.40;0.40;;;9.10;96.50;10.30;99630.00;;;;5406452;26;20277;-64
2024/04/17 01:59:57;;;;;;;0.40;0.40;;;9.10;96.50;10.30;99626.00;;;;5404150;26;20241;-64
2024/04/17 02:02:23;;;;;;;0.40;0.40;;;9.00;96.50;10.30;99624.00;;;;5405949;26;20310;-64
2024/04/17 02:04:52;;;;;;;0.40;0.40;;;9.00;96.50;10.30;99621.00;;;;5403250;26;20233;-64
2024/04/17 02:07:18;;;;;;;0.40;0.40;;;9.00;96.50;10.20;99624.00;;;;5403962;26;20233;-64
2024/04/17 02:09:46;;;;;;;0.50;0.50;;;8.90;96.40;10.20;99607.00;;;;5403691;26;20299;-64
2024/04/17 02:12:12;;;;;;;0.40;0.40;;;8.90;96.40;10.20;99634.00;;;;5407210;26;20375;-64
2024/04/17 02:14:41;;;;;;;0.40;0.40;;;8.90;96.40;10.20;99638.00;;;;5402347;26;20325;-64
2024/04/17 02:17:09;;;;;;;0.43;0.43;;;8.90;96.40;10.10;99637.00;;;;5404700;26;20812;-64
2024/04/17 02:19:38;;;;;;;0.50;0.50;;;8.90;96.40;10.10;99637.00;;;;5403774;26;20264;-64
2024/04/17 02:22:04;;;;;;;0.40;0.40;;;8.80;96.40;10.10;99634.00;;;;5404751;26;20589;-64
2024/04/17 02:24:32;;;;;;;0.30;0.30;;;8.80;96.40;10.00;99642.00;;;;5407724;26;20229;-64
2024/04/17 02:27:01;;;;;;;0.50;0.50;;;8.80;96.40;10.00;99642.00;;;;5404137;26;20264;-64
2024/04/17 02:29:29;;;;;;;0.40;0.40;;;8.70;96.30;10.00;99638.00;;;;5405406;26;21143;-65
2024/04/17 02:31:55;;;;;;;0.40;0.40;;;8.70;96.40;10.00;99645.00;;;;5409199;26;20276;-63
2024/04/17 02:34:27;;;;;;;0.40;0.40;;;8.70;96.40;9.90;99645.00;;;;5403567;26;20772;-64
2024/04/17 02:36:53;;;;;;;0.40;0.40;;;8.70;96.40;9.90;99639.00;;;;5401597;26;20564;-64
2024/04/17 02:39:21;;;;;;;0.40;0.40;;;8.60;96.40;9.90;99641.00;;;;5405965;26;20271;-66
2024/04/17 02:41:47;;;;;;;0.40;0.40;;;8.60;96.40;9.90;99645.00;;;;5405658;26;20375;-64
2024/04/17 02:44:16;;;;;;;0.40;0.40;;;8.60;96.40;9.90;99631.00;;;;5406637;26;20637;-64
2024/04/17 02:46:42;;;;;;;0.40;0.40;;;8.60;96.40;9.90;99633.00;;;;5402154;26;20906;-64
2024/04/17 02:49:10;;;;;;;0.40;0.40;;;8.60;96.40;9.90;99644.00;;;;5402306;26;20234;-64
2024/04/17 02:51:39;;;;;;;0.30;0.30;;;8.60;96.40;9.90;99645.00;;;;5406893;26;20568;-64
2024/04/17 02:54:07;;;;;;;0.40;0.40;;;8.50;96.40;9.90;99643.00;;;;5401636;26;20237;-64
2024/04/17 02:56:33;;;;;;;0.47;0.47;;;8.50;96.30;9.80;99642.00;;;;5401660;26;20245;-64
2024/04/17 02:59:02;;;;;;;0.43;0.43;;;8.50;96.30;9.80;99640.00;;;;5405066;26;20283;-63
2024/04/17 03:01:28;;;;;;;0.40;0.40;;;8.50;96.30;9.80;99647.00;;;;5403446;26;20233;-64
2024/04/17 03:03:56;;;;;;;0.30;0.30;;;8.50;96.30;9.80;99651.00;;;;5400803;26;20288;-64
2024/04/17 03:06:22;;;;;;;0.40;0.40;;;8.40;96.20;9.70;99648.00;;;;5405192;26;20237;-64
2024/04/17 03:08:54;;;;;;;0.40;0.40;;;8.40;96.20;9.60;99640.00;;;;5407631;26;20321;-64
2024/04/17 03:11:22;;;;;;;0.40;0.40;;;8.40;96.30;9.60;99631.00;;;;5401480;26;20241;-64
2024/04/17 03:13:48;;;;;;;0.30;0.30;;;8.30;96.20;9.50;99637.00;;;;5398865;26;20861;-60
2024/04/17 03:16:17;;;;;;;0.50;0.50;;;8.30;96.20;9.50;99641.00;;;;5400463;26;20246;-60
2024/04/17 03:18:43;;;;;;;0.40;0.40;;;8.30;96.30;9.50;99647.00;;;;5400526;26;20356;-61
2024/04/17 03:21:12;;;;;;;0.40;0.40;;;8.20;96.20;9.40;99650.00;;;;5403359;26;20230;-60
2024/04/17 03:23:38;;;;;;;0.40;0.40;;;8.20;96.20;9.40;99634.00;;;;5402797;26;20275;-61
2024/04/17 03:26:09;;;;;;;0.45;0.45;;;8.10;96.20;9.30;99657.00;;;;5407042;26;21053;-60
2024/04/17 03:28:35;;;;;;;0.40;0.40;;;8.10;96.30;9.30;99651.00;;;;5404500;26;20815;-61
2024/04/17 03:31:04;;;;;;;0.40;0.40;;;8.10;96.30;9.30;99654.00;;;;5403996;26;20315;-60
2024/04/17 03:33:30;;;;;;;0.40;0.40;;;8.00;96.20;9.30;99649.00;;;;5402694;26;20289;-61
2024/04/17 03:36:01;;;;;;;0.40;0.40;;;8.00;96.30;9.20;99657.00;;;;5398843;26;20844;-60
2024/04/17 03:38:30;;;;;;;0.40;0.40;;;8.00;96.30;9.20;99651.00;;;;5404367;26;20272;-60
2024/04/17 03:40:59;;;;;;;0.40;0.40;;;7.90;96.20;9.20;99662.00;;;;5406110;26;20651;-61
2024/04/17 03:43:30;;;;;;;0.40;0.40;;;7.90;96.30;9.10;99660.00;;;;5405561;26;20603;-61
2024/04/17 03:46:02;;;;;;;0.40;0.40;;;7.90;96.30;9.10;99675.00;;;;5398178;26;20799;-61
2024/04/17 03:48:31;;;;;;;0.40;0.40;;;7.90;96.30;9.10;99667.00;;;;5401777;26;20271;-61
2024/04/17 03:51:00;;;;;;;0.40;0.40;;;7.90;96.30;9.10;99659.00;;;;5399613;26;20669;-60
2024/04/17 03:53:26;;;;;;;0.40;0.40;;;7.90;96.30;9.00;99670.00;;;;5399871;26;20287;-60
2024/04/17 03:55:55;;;;;;;0.40;0.40;;;7.80;96.30;9.00;99669.00;;;;5406284;26;20255;-60
2024/04/17 03:58:21;;;;;;;0.40;0.40;;;7.80;96.40;9.00;99662.00;;;;5404519;26;20234;-61
2024/04/17 04:00:53;;;;;;;0.40;0.40;;;7.80;96.40;9.00;99672.00;;;;5400690;26;20239;-60
2024/04/17 04:03:19;;;;;;;0.43;0.43;;;7.70;96.40;9.00;99675.00;;;;5401725;26;20272;-61
2024/04/17 04:05:48;;;;;;;0.40;0.40;;;7.70;96.40;8.90;99661.00;;;;5401861;26;20234;-61
2024/04/17 04:08:14;;;;;;;0.50;0.50;;;7.70;96.40;8.90;99668.00;;;;5405241;26;20245;-60
2024/04/17 04:10:43;;;;;;;0.40;0.40;;;7.70;96.40;8.90;99659.00;;;;5406212;26;20238;-61
2024/04/17 04:13:09;;;;;;;0.47;0.47;;;7.60;96.70;8.90;99664.00;;;;5402064;26;20844;-60
2024/04/17 04:15:38;;;;;;;0.40;0.40;;;7.70;96.50;8.90;99669.00;;;;5405641;26;20268;-64
2024/04/17 04:18:06;;;;;;;0.47;0.47;;;7.60;96.40;8.80;99663.00;;;;5402189;26;20689;-64
2024/04/17 04:20:35;;;;;;;0.40;0.40;;;7.60;96.50;8.80;99661.00;;;;5397569;26;20990;-64
2024/04/17 04:23:01;;;;;;;0.40;0.40;;;7.60;96.40;8.80;99664.00;;;;5405487;26;20276;-64
2024/04/17 04:25:30;;;;;;;0.40;0.40;;;7.50;96.40;8.70;99669.00;;;;5404869;26;20338;-64
2024/04/17 04:27:56;;;;;;;0.50;0.50;;;7.50;96.40;8.70;99670.00;;;;5406250;26;20276;-64
2024/04/17 04:30:25;;;;;;;0.47;0.47;;;7.50;96.40;8.70;99673.00;;;;5402904;26;20238;-68
2024/04/17 04:32:53;;;;;;;0.40;0.40;;;7.40;96.40;8.60;99654.00;;;;5399673;26;20273;-64
2024/04/17 04:35:22;;;;;;;0.40;0.40;;;7.50;96.50;8.60;99675.00;;;;5406432;26;20253;-64
2024/04/17 04:37:51;;;;;;;0.40;0.40;;;7.40;96.50;8.60;99670.00;;;;5403283;26;20245;-64
2024/04/17 04:40:17;;;;;;;0.50;0.50;;;7.30;96.40;8.60;99667.00;;;;5401652;26;20261;-64
2024/04/17 04:42:45;;;;;;;0.50;0.50;;;7.40;96.50;8.60;99678.00;;;;5403941;26;20292;-65
2024/04/17 04:45:11;;;;;;;0.40;0.40;;;7.30;96.50;8.50;99682.00;;;;5404617;26;20819;-64
2024/04/17 04:47:40;;;;;;;0.40;0.40;;;7.30;96.50;8.50;99677.00;;;;5403289;26;20245;-64
2024/04/17 04:50:06;;;;;;;0.40;0.40;;;7.30;96.50;8.50;99679.00;;;;5398037;26;20245;-64
2024/04/17 04:52:38;;;;;;;0.40;0.40;;;7.30;96.60;8.50;99675.00;;;;5402885;26;20272;-64
2024/04/17 04:55:07;;;;;;;0.40;0.40;;;7.30;96.70;8.50;99663.00;;;;5402592;26;20233;-64
2024/04/17 04:57:36;;;;;;;0.40;0.40;;;7.20;96.70;8.40;99685.00;;;;5403123;26;20726;-64
2024/04/17 05:00:03;;;;;;;0.40;0.40;;;7.20;96.70;8.50;99686.00;;;;5405552;26;20671;-64
2024/04/17 05:02:32;;;;;;;0.40;0.40;;;7.20;96.80;8.50;99681.00;;;;5402437;26;20233;-64
2024/04/17 05:04:58;;;;;;;0.40;0.40;;;7.20;96.80;8.40;99685.00;;;;5408073;26;20285;-65
2024/04/17 05:07:26;;;;;;;0.40;0.40;;;7.20;96.90;8.50;99687.00;;;;5406426;26;20233;-64
2024/04/17 05:09:55;;;;;;;0.40;0.40;;;7.20;96.90;8.50;99695.00;;;;5408454;26;20276;-64
2024/04/17 05:12:24;;;;;;;0.40;0.40;;;7.20;97.00;8.50;99687.00;;;;5404871;26;20580;-64
2024/04/17 05:14:50;;;;;;;0.30;0.30;;;7.20;97.00;8.50;99709.00;;;;5408923;26;20241;-64
2024/04/17 05:17:19;;;;;;;0.45;0.45;;;7.30;97.10;8.50;99711.00;;;;5406500;26;20233;-64
2024/04/17 05:19:45;;;;;;;0.50;0.50;;;7.30;97.10;8.50;99705.00;;;;5409044;26;20363;-64
2024/04/17 05:22:13;;;;;;;0.32;0.32;;;7.30;97.20;8.50;99693.00;;;;5404852;26;20237;-64
2024/04/17 05:24:40;;;;;;;0.40;0.40;;;7.30;97.20;8.60;99706.00;;;;5401476;26;20645;-62
2024/04/17 05:27:11;;;;;;;0.50;0.50;;;7.30;97.20;8.60;99699.00;;;;5407688;26;20241;-61
2024/04/17 05:29:37;;;;;;;0.40;0.40;;;7.30;97.20;8.60;99696.00;;;;5400524;26;20237;-62
2024/04/17 05:32:07;;;;;;;0.40;0.40;;;7.30;97.20;8.60;99705.00;;;;5401120;26;20242;-61
2024/04/17 05:34:33;;;;;;;0.40;0.40;;;7.40;97.30;8.60;99703.00;;;;5401041;26;20280;-64
2024/04/17 05:37:05;;;;;;;0.40;0.40;;;7.40;97.30;8.70;99696.00;;;;5406015;26;20496;-64
2024/04/17 05:39:32;;;;;;;0.40;0.40;;;7.40;97.30;8.70;99706.00;;;;5406311;26;20804;-64
2024/04/17 05:42:02;;;;;;;0.47;0.47;;;7.40;97.30;8.70;99707.00;;;;5407469;26;20229;-64
2024/04/17 05:44:31;;;;;;;0.40;0.40;;;7.40;97.30;8.70;99707.00;;;;5405165;26;20697;-64
2024/04/17 05:46:59;;;;;;;0.40;0.40;;;7.40;97.40;8.70;99698.00;;;;5402150;26;20284;-64
2024/04/17 05:49:26;;;;;;;0.45;0.45;;;7.50;97.40;8.80;99706.00;;;;5400889;26;20242;-64
2024/04/17 05:51:55;;;;;;;0.30;0.30;;;7.50;97.50;8.80;99707.00;;;;5400553;26;20238;-64
2024/04/17 05:54:21;;;;;;;0.40;0.40;;;7.50;97.50;8.90;99706.00;;;;5395765;26;20238;-64
2024/04/17 05:56:50;;;;;;;0.40;0.40;;;7.50;97.50;8.90;99712.00;;;;5404098;26;20229;-64
2024/04/17 05:59:16;;;;;;;0.40;0.40;;;7.60;97.60;8.90;99715.00;;;;5403190;26;20353;-64
2024/04/17 06:01:47;;;;;;;0.40;0.40;;;7.60;97.80;8.90;99720.00;;;;5401212;26;20229;-64
2024/04/17 06:04:14;;;;;;;0.40;0.40;;;7.60;97.60;9.00;99719.00;;;;5402198;26;20361;-65
2024/04/17 06:06:43;;;;;;;0.40;0.40;;;7.60;97.60;9.00;99720.00;;;;5402682;26;20225;-64
2024/04/17 06:09:09;;;;;;;0.50;0.50;;;7.70;97.60;9.00;99719.00;;;;5402583;26;20279;-64
2024/04/17 06:11:38;;;;;;;0.40;0.40;;;7.70;97.70;9.10;99724.00;;;;5403238;26;20275;-64
2024/04/17 06:14:04;;;;;;;0.30;0.30;;;7.70;97.70;9.10;99724.00;;;;5403857;26;20268;-64
2024/04/17 06:16:33;;;;;;;0.40;0.40;;;7.80;97.80;9.20;99731.00;;;;5405503;26;20272;-64
2024/04/17 06:19:01;;;;;;;0.40;0.40;;;7.80;97.80;9.20;99728.00;;;;5407663;26;20666;-64
2024/04/17 06:21:30;;;;;;;0.47;0.47;;;7.80;98.10;9.20;99728.00;;;;5407690;26;20241;-65
2024/04/17 06:23:56;;;;;;;0.40;0.40;;;7.90;97.80;9.30;99725.00;;;;5403003;26;20251;-64
2024/04/17 06:26:25;;;;;;;0.40;0.40;;;7.90;97.80;9.30;99726.00;;;;5399352;26;20233;-64
2024/04/17 06:28:51;;;;;;;0.35;0.35;;;8.00;97.90;9.40;99731.00;;;;5401022;26;20726;-63
2024/04/17 06:31:21;;;;;;;0.35;0.35;;;8.00;97.90;9.40;99727.00;;;;5401536;26;20245;-63
2024/04/17 06:33:47;;;;;;;0.38;0.38;;;8.00;97.90;9.40;99720.00;;;;5407468;26;20233;-64
2024/04/17 06:36:21;;;;;;;0.40;0.40;;;8.10;97.90;9.50;99739.00;;;;5401459;26;20910;-64
2024/04/17 06:38:47;;;;;;;0.35;0.35;;;8.10;97.90;9.50;99732.00;;;;5403883;26;20297;-64
2024/04/17 06:41:16;;;;;;;0.40;0.40;;;8.20;98.00;9.50;99736.00;;;;5406217;26;20750;-64
2024/04/17 06:43:42;;;;;;;0.30;0.30;;;8.20;98.00;9.60;99737.00;;;;5401210;26;20245;-61
2024/04/17 06:46:11;;;;;;;0.40;0.40;;;8.20;97.90;9.60;99743.00;;;;5403475;26;20309;-62
2024/04/17 06:48:37;;;;;;;0.40;0.40;;;8.30;98.00;9.70;99725.00;;;;5402155;26;20751;-61
2024/04/17 06:51:06;;;;;;;0.45;0.45;;;8.30;98.00;9.80;99739.00;;;;5405085;26;20245;-61
2024/04/17 06:53:35;;;;;;;0.40;0.40;;;8.30;98.00;9.80;99741.00;;;;5402028;26;20618;-62
2024/04/17 06:56:04;;;;;;;0.40;0.40;;;8.40;98.10;9.80;99737.00;;;;5393297;26;20281;-61
2024/04/17 06:58:30;;;;;;;0.47;0.47;;;8.40;98.00;9.90;99739.00;;;;5401729;26;20242;-61
2024/04/17 07:00:58;;;;;;;0.35;0.35;;;8.50;98.00;9.90;99739.00;;;;5400491;26;20745;-60
2024/04/17 07:03:26;;;;;;;0.47;0.47;;;8.50;97.90;9.80;99746.00;;;;5403753;26;20289;-61
2024/04/17 07:06:03;;;;;;;0.40;0.40;;;8.50;97.90;9.80;99747.00;;;;5407426;26;20788;-61
2024/04/17 07:08:29;;;;;;;0.40;0.40;;;8.60;98.00;9.90;99745.00;;;;5405941;26;20606;-62
2024/04/17 07:11:01;;;;;;;0.50;0.50;;;8.60;97.80;9.90;99753.00;;;;5406144;26;20281;-62
2024/04/17 07:13:27;;;;;;;0.40;0.40;;;8.60;97.90;9.90;99752.00;;;;5404621;26;20233;-61
2024/04/17 07:15:57;;;;;;;0.40;0.40;;;8.60;97.90;9.90;99747.00;;;;5406194;26;20348;-62
2024/04/17 07:18:24;;;;;;;0.55;0.55;;;8.60;97.90;9.90;99749.00;;;;5404644;26;20237;-62
2024/04/17 07:20:53;;;;;;;0.40;0.40;;;8.60;97.80;9.90;99747.00;;;;5403902;26;20268;-61
2024/04/17 07:23:19;;;;;;;0.40;0.40;;;8.60;97.80;9.90;99754.00;;;;5405101;26;20233;-62
2024/04/17 07:25:49;;;;;;;0.40;0.40;;;8.70;97.70;9.90;99755.00;;;;5405913;26;20648;-61
2024/04/17 07:28:18;;;;;;;0.40;0.40;;;8.70;97.60;9.80;99750.00;;;;5403387;26;20237;-61
2024/04/17 07:30:47;;;;;;;0.40;0.40;;;8.60;97.60;9.80;99755.00;;;;5399797;26;20686;-61
2024/04/17 07:33:13;;;;;;;0.40;0.40;;;8.60;97.50;9.80;99750.00;;;;5403169;26;20776;-61
2024/04/17 07:35:42;;;;;;;0.43;0.43;;;8.60;97.50;9.80;99745.00;;;;5404576;26;20353;-60
2024/04/17 07:38:09;;;;;;;0.35;0.35;;;8.60;97.50;9.80;99748.00;;;;5399366;26;20234;-60
2024/04/17 07:40:38;;;;;;;0.40;0.40;;;8.60;97.50;9.80;99744.00;;;;5403676;26;20343;-60
2024/04/17 07:43:05;;;;;;;0.60;0.60;;;8.60;97.60;9.80;99750.00;;;;5400966;26;20883;-60
2024/04/17 07:45:36;;;;;;;0.50;0.50;;;8.60;97.50;9.80;99754.00;;;;5402093;26;20245;-64
2024/04/17 07:48:03;;;;;;;0.40;0.40;;;8.60;97.60;9.80;99751.00;;;;5406295;26;20241;-64
2024/04/17 07:50:31;;;;;;;0.50;0.50;;;8.60;97.60;9.80;99750.00;;;;5403395;26;20241;-63
2024/04/17 07:52:58;;;;;;;0.40;0.40;;;8.60;97.60;9.80;99754.00;;;;5398521;26;20250;-63
2024/04/17 07:55:27;;;;;;;0.38;0.38;;;8.60;97.60;9.90;99755.00;;;;5402278;26;20308;-61
2024/04/17 07:57:53;;;;;;;0.40;0.40;;;8.60;97.70;9.80;99747.00;;;;5402705;26;20234;-61
2024/04/17 08:00:21;;;;;;;0.35;0.35;;;8.60;97.50;9.80;99744.00;;;;5404362;26;20783;-61
2024/04/17 08:02:50;;;;;;;0.50;0.50;;;8.50;97.40;9.80;99747.00;;;;5400098;26;20244;-60
2024/04/17 08:05:19;;;;;;;0.40;0.40;;;8.60;97.50;9.70;99755.00;;;;5406384;26;20252;-60
2024/04/17 08:07:45;;;;;;;0.40;0.40;;;8.50;97.40;9.70;99739.00;;;;5399452;26;20403;-61
2024/04/17 08:10:13;;;;;;;0.40;0.40;;;8.50;97.40;9.70;99741.00;;;;5405000;26;20248;-61
2024/04/17 08:12:40;;;;;;;0.50;0.50;;;8.50;97.40;9.70;99741.00;;;;5397698;26;20272;-62
2024/04/17 08:15:10;;;;;;;0.40;0.40;;;8.50;97.40;9.70;99748.00;;;;5401497;26;20237;-61
2024/04/17 08:17:36;;;;;;;0.47;0.47;;;8.50;97.50;9.70;99737.00;;;;5400848;26;20237;-61
2024/04/17 08:20:08;;;;;;;0.40;0.40;;;8.50;97.50;9.70;99742.00;;;;5403476;26;20776;-61
2024/04/17 08:22:35;;;;;;;0.50;0.50;;;8.50;97.50;9.70;99745.00;;;;5400390;26;20325;-61
2024/04/17 08:25:04;;;;;;;0.40;0.40;;;8.40;97.50;9.70;99748.00;;;;5406903;26;20237;-61
2024/04/17 08:27:30;;;;;;;0.47;0.47;;;8.50;97.60;9.70;99753.00;;;;5401800;26;20264;-62
2024/04/17 08:29:59;;;;;;;0.40;0.40;;;8.50;97.60;9.80;99743.00;;;;5397420;26;20718;-60
2024/04/17 08:32:25;;;;;;;0.40;0.40;;;8.50;97.70;9.80;99755.00;;;;5402750;26;20613;-61
2024/04/17 08:34:55;;;;;;;0.40;0.40;;;8.50;97.70;9.80;99751.00;;;;5401146;26;20240;-60
2024/04/17 08:37:24;;;;;;;0.40;0.40;;;8.50;97.80;9.80;99749.00;;;;5405048;26;20657;-61
2024/04/17 08:39:52;;;;;;;0.40;0.40;;;8.50;97.80;9.90;99754.00;;;;5402683;26;20271;-61
2024/04/17 08:42:23;;;;;;;0.40;0.40;;;8.60;97.90;9.90;99754.00;;;;5398449;26;20726;-60
2024/04/17 08:44:52;;;;;;;0.32;0.32;;;8.60;97.90;9.90;99754.00;;;;5402402;26;20288;-62
2024/04/17 08:47:20;;;;;;;0.40;0.40;;;8.60;97.90;10.00;99742.00;;;;5401596;26;20249;-61
2024/04/17 08:49:52;;;;;;;0.47;0.47;;;8.60;97.90;10.00;99747.00;;;;5397902;26;20237;-61
2024/04/17 08:52:23;;;;;;;0.40;0.40;;;8.70;98.00;10.00;99752.00;;;;5405468;26;20237;-60
2024/04/17 08:54:54;;;;;;;0.40;0.40;;;8.70;98.00;10.10;99765.00;;;;5403013;26;20297;-61
2024/04/17 08:57:20;;;;;;;0.30;0.30;;;8.70;98.00;10.10;99750.00;;;;5398519;26;20241;-62
2024/04/17 08:59:49;;;;;;;0.45;0.45;;;8.80;98.00;10.20;99758.00;;;;5400745;26;20275;-61
2024/04/17 09:02:16;;;;;;;0.40;0.40;;;8.80;98.00;10.20;99759.00;;;;5400211;26;20346;-61
2024/04/17 09:04:47;;;;;;;0.40;0.40;;;8.80;98.00;10.20;99759.00;;;;5402515;26;20566;-65
2024/04/17 09:07:13;;;;;;;0.30;0.30;;;8.90;98.00;10.20;99751.00;;;;5402520;26;20245;-65
2024/04/17 09:09:45;;;;;;;0.40;0.40;;;8.90;98.00;10.30;99749.00;;;;5400015;26;20229;-65
2024/04/17 09:12:12;;;;;;;0.40;0.40;;;8.90;98.00;10.30;99747.00;;;;5399132;26;20233;-65
2024/04/17 09:14:41;;;;;;;0.40;0.40;;;8.90;98.00;10.30;99759.00;;;;5398270;26;20342;-64
2024/04/17 09:17:08;;;;;;;0.40;0.40;;;9.00;98.10;10.40;99771.00;;;;5402566;26;20237;-65
2024/04/17 09:19:36;;;;;;;0.50;0.50;;;9.00;98.10;10.40;99758.00;;;;5399910;26;20275;-64
2024/04/17 09:22:03;;;;;;;0.50;0.50;;;9.00;98.10;10.50;99758.00;;;;5399775;26;20237;-65
2024/04/17 09:24:40;;;;;;;0.50;0.50;;;9.10;98.60;10.50;99762.00;;;;5401634;26;20749;-65
2024/04/17 09:27:14;;;;;;;0.40;0.40;;;9.10;98.30;10.60;99752.00;;;;5398263;26;20756;-64
2024/04/17 09:29:43;;;;;;;0.47;0.47;;;9.10;98.30;10.60;99753.00;;;;5399873;26;20241;-65
2024/04/17 09:32:13;;;;;;;0.40;0.40;;;9.20;98.30;10.70;99759.00;;;;5404751;26;21155;-64
2024/04/17 09:34:42;;;;;;;0.40;0.40;;;9.20;98.40;10.70;99772.00;;;;5400551;26;20284;-64
2024/04/17 09:37:10;;;;;;;0.40;0.40;;;9.30;98.50;10.80;99757.00;;;;5405794;26;20237;-64
2024/04/17 09:39:38;;;;;;;0.30;0.30;;;9.30;98.50;10.90;99764.00;;;;5401258;26;20283;-65
2024/04/17 09:42:09;;;;;;;0.30;0.30;;;9.40;98.50;10.90;99752.00;;;;5394229;26;20276;-64
2024/04/17 09:44:42;;;;;;;0.40;0.40;;;9.40;98.50;11.00;99746.00;;;;5400965;26;20765;-64
2024/04/17 09:47:10;;;;;;;0.40;0.40;;;9.50;98.50;11.10;99761.00;;;;5405448;26;20355;-65
2024/04/17 09:49:46;;;;;;;0.40;0.40;;;9.50;98.50;11.10;99746.00;;;;5404918;26;20654;-64
2024/04/17 09:52:17;;;;;;;0.40;0.40;;;9.60;98.50;11.20;99741.00;;;;5406893;26;20362;-64
2024/04/17 09:54:47;;;;;;;0.40;0.40;;;9.60;98.50;11.20;99753.00;;;;5405854;26;20788;-64
2024/04/17 09:57:16;;;;;;;0.40;0.40;;;9.70;98.50;11.30;99747.00;;;;5405651;26;20780;-65
2024/04/17 09:59:46;;;;;;;0.40;0.40;;;9.70;98.50;11.30;99744.00;;;;5404832;26;20711;-65
2024/04/17 10:02:15;;;;;;;0.30;0.30;;;9.70;98.50;11.40;99750.00;;;;5403699;26;20253;-64
2024/04/17 10:04:45;;;;;;;0.40;0.40;;;9.80;98.50;11.40;99741.00;;;;5404109;26;20241;-64
2024/04/17 10:07:30;;;;;;;0.30;0.30;;;9.80;98.50;11.50;99745.00;;;;5404077;26;20283;-64
2024/04/17 10:10:02;;;;;;;0.30;0.30;;;9.90;98.70;11.50;99750.00;;;;5404391;26;20666;-65
2024/04/17 10:12:34;;;;;;;0.40;0.40;;;9.90;98.50;11.60;99753.00;;;;5401053;26;20568;-64
2024/04/17 10:15:04;;;;;;;0.30;0.30;;;9.90;98.60;11.60;99743.00;;;;5401541;26;20275;-62
2024/04/17 10:17:31;;;;;;;0.35;0.35;;;9.90;98.60;11.70;99747.00;;;;5409061;26;20237;-62
2024/04/17 10:20:00;;;;;;;0.30;0.30;;;10.00;98.10;11.80;99732.00;;;;5406267;26;20318;-62
2024/04/17 10:22:28;;;;;;;0.40;0.40;;;10.10;98.20;11.80;99747.00;;;;5408441;26;20253;-62
2024/04/17 10:25:07;;;;;;;0.40;0.40;;;10.10;98.20;11.90;99747.00;;;;5406290;26;20276;-61
2024/04/17 10:27:38;;;;;;;0.40;0.40;;;10.20;98.30;11.90;99746.00;;;;5403179;26;20241;-61
2024/04/17 10:30:10;;;;;;;0.40;0.40;;;10.20;98.20;12.00;99733.00;;;;5408206;26;20742;-62
2024/04/17 10:32:37;;;;;;;0.30;0.30;;;10.30;98.30;12.10;99744.00;;;;5405122;26;20238;-62
2024/04/17 10:35:16;;;;;;;0.32;0.32;;;10.40;98.70;12.20;99737.00;;;;5405331;26;20752;-61
2024/04/17 10:37:45;;;;;;;0.40;0.40;;;10.50;98.50;12.20;99722.00;;;;5407775;26;20237;-61
2024/04/17 10:40:14;;;;;;;0.40;0.40;;;10.50;98.30;12.30;99734.00;;;;5403203;26;20233;-61
2024/04/17 10:42:43;;;;;;;0.40;0.40;;;10.60;98.40;12.40;99741.00;;;;5403178;26;20765;-61
2024/04/17 10:45:12;;;;;;;0.38;0.38;;;10.70;98.50;12.40;99738.00;;;;5406174;26;20285;-61
2024/04/17 10:47:38;;;;;;;0.40;0.40;;;10.70;98.50;12.50;99738.00;;;;5405421;26;20615;-62
2024/04/17 10:50:09;;;;;;;0.30;0.30;;;10.80;98.40;12.50;99737.00;;;;5401681;26;20249;-62
2024/04/17 10:52:38;;;;;;;0.40;0.40;;;10.90;98.30;12.50;99730.00;;;;5404615;26;20283;-61
2024/04/17 10:55:10;;;;;;;0.40;0.40;;;10.90;98.20;12.60;99732.00;;;;5400992;26;20709;-61
2024/04/17 10:57:36;;;;;;;0.40;0.40;;;10.90;98.30;12.60;99735.00;;;;5405470;26;20253;-62
2024/04/17 11:00:11;;;;;;;0.40;0.40;;;11.00;98.30;12.70;99722.00;;;;5407657;26;20233;-61
2024/04/17 11:02:37;;;;;;;0.40;0.40;;;11.10;98.40;12.80;99727.00;;;;5405932;26;20272;-62
2024/04/17 11:05:06;;;;;;;0.40;0.40;;;11.10;98.40;12.80;99720.00;;;;5403629;26;20241;-61
2024/04/17 11:07:32;;;;;;;0.40;0.40;;;11.20;98.50;12.90;99718.00;;;;5406615;26;20268;-60
2024/04/17 11:10:02;;;;;;;0.40;0.40;;;11.20;98.40;12.90;99715.00;;;;5403865;26;20229;-61